Finchville, Kentucky
Current Conditions -  °F | °C
As of 5:53 PM on Tuesday 21 Oct 2014 (Local Time) from KLOU Reporting Station
Overcast Overcast  
Wind Chill: 58°   Ceiling: 6000
Heat Index: 58°   Visibility: 10mi
Dew Point: 40°   Wind: 6mph
Humidity: 51%   Direction: 360°N
Pressure: 30.11"   Gusts: NA
Location:  38.15°N, 85.31°W
Report Text: KLOU 212153Z 36005KT 10SM OVC060 14/04 A3011 RMK AO2 SLP196 T01440044
Loading
Personal Weather Stations






























Interactive Weather Map
Tropical Storm Tracking
New forecast layout! Learn more

10-Day Weather Forecast

Advertisements
Track Severe Weather on mobile